sensor_id;sensor_type;location;lat;lon;timestamp;temperature;humidity
45807;DHT22;31507;51.494;7.518;2023-03-23T00:01:48;10.70;99.90
45807;DHT22;31507;51.494;7.518;2023-03-23T00:04:16;10.70;99.90
45807;DHT22;31507;51.494;7.518;2023-03-23T00:06:41;10.70;99.90
45807;DHT22;31507;51.494;7.518;2023-03-23T00:09:08;10.70;99.90
45807;DHT22;31507;51.494;7.518;2023-03-23T00:11:33;10.60;99.90
45807;DHT22;31507;51.494;7.518;2023-03-23T00:14:00;10.60;99.90
45807;DHT22;31507;51.494;7.518;2023-03-23T00:16:28;10.60;99.90
45807;DHT22;31507;51.494;7.518;2023-03-23T00:18:57;10.50;99.90
45807;DHT22;31507;51.494;7.518;2023-03-23T00:21:24;10.50;99.90
45807;DHT22;31507;51.494;7.518;2023-03-23T00:26:28;10.60;99.90
45807;DHT22;31507;51.494;7.518;2023-03-23T00:28:55;10.60;99.90
45807;DHT22;31507;51.494;7.518;2023-03-23T00:31:21;10.60;99.90
45807;DHT22;31507;51.494;7.518;2023-03-23T00:33:47;10.70;99.90
45807;DHT22;31507;51.494;7.518;2023-03-23T00:36:13;10.70;99.90
45807;DHT22;31507;51.494;7.518;2023-03-23T00:38:39;10.70;99.90
45807;DHT22;31507;51.494;7.518;2023-03-23T00:41:07;10.70;99.90
45807;DHT22;31507;51.494;7.518;2023-03-23T00:43:33;10.70;99.90
45807;DHT22;31507;51.494;7.518;2023-03-23T00:46:01;10.80;99.90
45807;DHT22;31507;51.494;7.518;2023-03-23T00:48:34;10.80;99.90
45807;DHT22;31507;51.494;7.518;2023-03-23T00:51:01;10.90;99.90
45807;DHT22;31507;51.494;7.518;2023-03-23T00:53:31;10.90;99.90
45807;DHT22;31507;51.494;7.518;2023-03-23T00:55:57;10.90;99.90
45807;DHT22;31507;51.494;7.518;2023-03-23T00:58:23;10.90;99.90
45807;DHT22;31507;51.494;7.518;2023-03-23T01:00:48;11.00;99.90
45807;DHT22;31507;51.494;7.518;2023-03-23T01:03:14;11.00;99.90
45807;DHT22;31507;51.494;7.518;2023-03-23T01:05:44;11.00;99.90
45807;DHT22;31507;51.494;7.518;2023-03-23T01:08:13;11.00;99.90
45807;DHT22;31507;51.494;7.518;2023-03-23T01:10:39;11.00;99.90
45807;DHT22;31507;51.494;7.518;2023-03-23T01:13:06;11.10;99.90
45807;DHT22;31507;51.494;7.518;2023-03-23T01:15:32;11.00;99.90
45807;DHT22;31507;51.494;7.518;2023-03-23T01:17:58;11.10;99.90
45807;DHT22;31507;51.494;7.518;2023-03-23T01:20:24;11.10;99.90
45807;DHT22;31507;51.494;7.518;2023-03-23T01:22:52;11.20;99.90
45807;DHT22;31507;51.494;7.518;2023-03-23T01:25:18;11.20;99.90
45807;DHT22;31507;51.494;7.518;2023-03-23T01:27:44;11.20;99.90
45807;DHT22;31507;51.494;7.518;2023-03-23T01:30:11;11.20;99.90
45807;DHT22;31507;51.494;7.518;2023-03-23T01:32:38;11.30;99.90
45807;DHT22;31507;51.494;7.518;2023-03-23T01:35:04;11.20;99.90
45807;DHT22;31507;51.494;7.518;2023-03-23T01:37:30;11.20;99.90
45807;DHT22;31507;51.494;7.518;2023-03-23T01:39:56;11.20;99.90
45807;DHT22;31507;51.494;7.518;2023-03-23T01:42:30;11.10;99.90
45807;DHT22;31507;51.494;7.518;2023-03-23T01:45:23;11.00;99.90
45807;DHT22;31507;51.494;7.518;2023-03-23T01:47:54;11.00;99.90
45807;DHT22;31507;51.494;7.518;2023-03-23T01:50:21;10.90;99.90
45807;DHT22;31507;51.494;7.518;2023-03-23T01:52:50;10.90;99.90
45807;DHT22;31507;51.494;7.518;2023-03-23T01:55:18;10.80;99.90
45807;DHT22;31507;51.494;7.518;2023-03-23T01:57:45;10.70;99.90
45807;DHT22;31507;51.494;7.518;2023-03-23T02:00:11;10.70;99.90
45807;DHT22;31507;51.494;7.518;2023-03-23T02:02:45;10.70;99.90
45807;DHT22;31507;51.494;7.518;2023-03-23T02:05:15;10.70;99.90
45807;DHT22;31507;51.494;7.518;2023-03-23T02:07:45;10.70;99.90
45807;DHT22;31507;51.494;7.518;2023-03-23T02:10:11;10.60;99.90
45807;DHT22;31507;51.494;7.518;2023-03-23T02:12:37;10.70;99.90
45807;DHT22;31507;51.494;7.518;2023-03-23T02:15:03;10.70;99.90
45807;DHT22;31507;51.494;7.518;2023-03-23T02:17:52;10.70;99.90
45807;DHT22;31507;51.494;7.518;2023-03-23T02:20:30;10.70;99.90
45807;DHT22;31507;51.494;7.518;2023-03-23T02:26:19;10.70;99.90
45807;DHT22;31507;51.494;7.518;2023-03-23T02:31:41;10.70;99.90
45807;DHT22;31507;51.494;7.518;2023-03-23T02:37:10;10.70;99.90
45807;DHT22;31507;51.494;7.518;2023-03-23T02:39:49;10.60;99.90
45807;DHT22;31507;51.494;7.518;2023-03-23T02:42:38;10.60;99.90
45807;DHT22;31507;51.494;7.518;2023-03-23T02:45:08;10.50;99.90
45807;DHT22;31507;51.494;7.518;2023-03-23T02:47:37;10.60;99.90
45807;DHT22;31507;51.494;7.518;2023-03-23T02:50:05;10.60;99.90
45807;DHT22;31507;51.494;7.518;2023-03-23T02:52:33;10.60;99.90
45807;DHT22;31507;51.494;7.518;2023-03-23T02:55:00;10.60;99.90
45807;DHT22;31507;51.494;7.518;2023-03-23T02:57:27;10.60;99.90
45807;DHT22;31507;51.494;7.518;2023-03-23T02:59:53;10.60;99.90
45807;DHT22;31507;51.494;7.518;2023-03-23T03:02:23;10.50;99.90
45807;DHT22;31507;51.494;7.518;2023-03-23T03:10:40;10.50;99.90
45807;DHT22;31507;51.494;7.518;2023-03-23T03:18:46;10.50;99.90
45807;DHT22;31507;51.494;7.518;2023-03-23T03:21:14;10.40;99.90
45807;DHT22;31507;51.494;7.518;2023-03-23T03:23:46;10.50;99.90
45807;DHT22;31507;51.494;7.518;2023-03-23T03:26:14;10.50;99.90
45807;DHT22;31507;51.494;7.518;2023-03-23T03:28:45;10.50;99.90
45807;DHT22;31507;51.494;7.518;2023-03-23T03:31:15;10.50;99.90
45807;DHT22;31507;51.494;7.518;2023-03-23T03:33:42;10.50;99.90
45807;DHT22;31507;51.494;7.518;2023-03-23T03:36:18;10.50;99.90
45807;DHT22;31507;51.494;7.518;2023-03-23T03:38:48;10.60;99.90
45807;DHT22;31507;51.494;7.518;2023-03-23T03:41:16;10.70;99.90
45807;DHT22;31507;51.494;7.518;2023-03-23T03:43:42;10.70;99.90
45807;DHT22;31507;51.494;7.518;2023-03-23T03:46:07;10.70;99.90
45807;DHT22;31507;51.494;7.518;2023-03-23T03:48:33;10.70;99.90
45807;DHT22;31507;51.494;7.518;2023-03-23T03:50:59;10.70;99.90
45807;DHT22;31507;51.494;7.518;2023-03-23T03:53:26;10.70;99.90
45807;DHT22;31507;51.494;7.518;2023-03-23T03:55:52;10.70;99.90
45807;DHT22;31507;51.494;7.518;2023-03-23T03:58:21;10.80;99.90
45807;DHT22;31507;51.494;7.518;2023-03-23T04:00:47;10.80;99.90
45807;DHT22;31507;51.494;7.518;2023-03-23T04:03:16;10.90;99.90
45807;DHT22;31507;51.494;7.518;2023-03-23T04:05:42;10.90;99.90
45807;DHT22;31507;51.494;7.518;2023-03-23T04:08:10;10.90;99.90
45807;DHT22;31507;51.494;7.518;2023-03-23T04:10:36;10.90;99.90
45807;DHT22;31507;51.494;7.518;2023-03-23T04:13:02;10.90;99.90
45807;DHT22;31507;51.494;7.518;2023-03-23T04:15:30;10.90;99.90
45807;DHT22;31507;51.494;7.518;2023-03-23T04:17:56;10.90;99.90
45807;DHT22;31507;51.494;7.518;2023-03-23T04:20:23;11.00;99.90
45807;DHT22;31507;51.494;7.518;2023-03-23T04:22:50;11.00;99.90
45807;DHT22;31507;51.494;7.518;2023-03-23T04:25:19;10.90;99.90
45807;DHT22;31507;51.494;7.518;2023-03-23T04:27:48;10.90;99.90
45807;DHT22;31507;51.494;7.518;2023-03-23T04:30:22;10.90;99.90
45807;DHT22;31507;51.494;7.518;2023-03-23T04:32:49;10.90;99.90
45807;DHT22;31507;51.494;7.518;2023-03-23T04:35:22;10.90;99.90
45807;DHT22;31507;51.494;7.518;2023-03-23T04:37:50;10.90;99.90
45807;DHT22;31507;51.494;7.518;2023-03-23T04:40:16;10.90;99.90
45807;DHT22;31507;51.494;7.518;2023-03-23T04:42:43;11.00;99.90
45807;DHT22;31507;51.494;7.518;2023-03-23T04:45:20;11.00;99.90
45807;DHT22;31507;51.494;7.518;2023-03-23T04:47:51;11.00;99.90
45807;DHT22;31507;51.494;7.518;2023-03-23T04:50:23;10.90;99.90
45807;DHT22;31507;51.494;7.518;2023-03-23T04:52:50;11.00;99.90
45807;DHT22;31507;51.494;7.518;2023-03-23T04:55:17;11.00;99.90
45807;DHT22;31507;51.494;7.518;2023-03-23T04:57:43;11.00;99.90
45807;DHT22;31507;51.494;7.518;2023-03-23T05:00:10;11.00;99.90
45807;DHT22;31507;51.494;7.518;2023-03-23T05:02:45;11.00;99.90
45807;DHT22;31507;51.494;7.518;2023-03-23T05:05:22;11.00;99.90
45807;DHT22;31507;51.494;7.518;2023-03-23T05:07:48;11.00;99.90
45807;DHT22;31507;51.494;7.518;2023-03-23T05:10:15;11.10;99.90
45807;DHT22;31507;51.494;7.518;2023-03-23T05:12:42;11.10;99.90
45807;DHT22;31507;51.494;7.518;2023-03-23T05:15:10;11.00;99.90
45807;DHT22;31507;51.494;7.518;2023-03-23T05:17:36;11.00;99.90
45807;DHT22;31507;51.494;7.518;2023-03-23T05:20:04;11.00;99.90
45807;DHT22;31507;51.494;7.518;2023-03-23T05:22:33;11.00;99.90
45807;DHT22;31507;51.494;7.518;2023-03-23T05:25:00;11.00;99.90
45807;DHT22;31507;51.494;7.518;2023-03-23T05:27:28;11.00;99.90
45807;DHT22;31507;51.494;7.518;2023-03-23T05:29:56;11.00;99.90
45807;DHT22;31507;51.494;7.518;2023-03-23T05:32:26;11.10;99.90
45807;DHT22;31507;51.494;7.518;2023-03-23T05:34:55;11.10;99.90
45807;DHT22;31507;51.494;7.518;2023-03-23T05:37:22;11.10;99.90
45807;DHT22;31507;51.494;7.518;2023-03-23T05:39:47;11.10;99.90
45807;DHT22;31507;51.494;7.518;2023-03-23T05:42:13;11.10;99.90
45807;DHT22;31507;51.494;7.518;2023-03-23T05:44:39;11.10;99.90
45807;DHT22;31507;51.494;7.518;2023-03-23T05:47:05;11.10;99.90
45807;DHT22;31507;51.494;7.518;2023-03-23T05:49:31;11.10;99.90
45807;DHT22;31507;51.494;7.518;2023-03-23T05:51:57;11.10;99.90
45807;DHT22;31507;51.494;7.518;2023-03-23T05:54:22;11.20;99.90
45807;DHT22;31507;51.494;7.518;2023-03-23T05:56:48;11.20;99.90
45807;DHT22;31507;51.494;7.518;2023-03-23T05:59:14;11.30;99.90
45807;DHT22;31507;51.494;7.518;2023-03-23T06:01:40;11.20;99.90
45807;DHT22;31507;51.494;7.518;2023-03-23T06:04:06;11.20;99.90
45807;DHT22;31507;51.494;7.518;2023-03-23T06:06:31;11.20;99.90
45807;DHT22;31507;51.494;7.518;2023-03-23T06:08:57;11.20;99.90
45807;DHT22;31507;51.494;7.518;2023-03-23T06:11:24;11.20;99.90
45807;DHT22;31507;51.494;7.518;2023-03-23T06:13:51;11.30;99.90
45807;DHT22;31507;51.494;7.518;2023-03-23T06:16:17;11.30;99.90
45807;DHT22;31507;51.494;7.518;2023-03-23T06:18:42;11.30;99.90
45807;DHT22;31507;51.494;7.518;2023-03-23T06:21:09;11.30;99.90
45807;DHT22;31507;51.494;7.518;2023-03-23T06:23:35;11.30;99.90
45807;DHT22;31507;51.494;7.518;2023-03-23T06:26:04;11.40;99.90
45807;DHT22;31507;51.494;7.518;2023-03-23T06:28:31;11.40;99.90
45807;DHT22;31507;51.494;7.518;2023-03-23T06:31:03;11.40;99.90
45807;DHT22;31507;51.494;7.518;2023-03-23T06:33:32;11.40;99.90
45807;DHT22;31507;51.494;7.518;2023-03-23T06:36:00;11.40;99.90
45807;DHT22;31507;51.494;7.518;2023-03-23T06:38:25;11.40;99.90
45807;DHT22;31507;51.494;7.518;2023-03-23T06:40:54;11.40;99.90
45807;DHT22;31507;51.494;7.518;2023-03-23T06:43:21;11.50;99.90
45807;DHT22;31507;51.494;7.518;2023-03-23T06:45:47;11.50;99.90
45807;DHT22;31507;51.494;7.518;2023-03-23T06:48:13;11.60;99.90
45807;DHT22;31507;51.494;7.518;2023-03-23T06:50:41;11.60;99.90
45807;DHT22;31507;51.494;7.518;2023-03-23T06:53:07;11.60;99.90
45807;DHT22;31507;51.494;7.518;2023-03-23T06:55:33;11.70;99.90
45807;DHT22;31507;51.494;7.518;2023-03-23T06:57:58;11.70;99.90
45807;DHT22;31507;51.494;7.518;2023-03-23T07:00:26;11.80;99.90
45807;DHT22;31507;51.494;7.518;2023-03-23T07:02:52;11.80;99.90
45807;DHT22;31507;51.494;7.518;2023-03-23T07:05:18;11.90;99.90
45807;DHT22;31507;51.494;7.518;2023-03-23T07:07:45;11.90;99.90
45807;DHT22;31507;51.494;7.518;2023-03-23T07:10:10;11.90;99.90
45807;DHT22;31507;51.494;7.518;2023-03-23T07:12:37;12.00;99.90
45807;DHT22;31507;51.494;7.518;2023-03-23T07:15:03;12.00;99.90
45807;DHT22;31507;51.494;7.518;2023-03-23T07:17:29;12.10;99.90
45807;DHT22;31507;51.494;7.518;2023-03-23T07:19:55;12.10;99.90
45807;DHT22;31507;51.494;7.518;2023-03-23T07:22:21;12.10;99.90
45807;DHT22;31507;51.494;7.518;2023-03-23T07:24:47;12.20;99.90
45807;DHT22;31507;51.494;7.518;2023-03-23T07:27:13;12.20;99.90
45807;DHT22;31507;51.494;7.518;2023-03-23T07:29:39;12.10;99.90
45807;DHT22;31507;51.494;7.518;2023-03-23T07:32:06;12.20;99.90
45807;DHT22;31507;51.494;7.518;2023-03-23T07:34:32;12.20;99.90
45807;DHT22;31507;51.494;7.518;2023-03-23T07:36:58;12.20;99.90
45807;DHT22;31507;51.494;7.518;2023-03-23T07:39:24;12.30;99.90
45807;DHT22;31507;51.494;7.518;2023-03-23T07:41:51;12.30;99.90
45807;DHT22;31507;51.494;7.518;2023-03-23T07:44:17;12.30;99.90
45807;DHT22;31507;51.494;7.518;2023-03-23T07:46:42;12.40;99.90
45807;DHT22;31507;51.494;7.518;2023-03-23T07:49:08;12.40;99.90
45807;DHT22;31507;51.494;7.518;2023-03-23T07:51:37;12.40;99.90
45807;DHT22;31507;51.494;7.518;2023-03-23T07:54:06;12.40;99.90
45807;DHT22;31507;51.494;7.518;2023-03-23T07:56:35;12.50;99.90
45807;DHT22;31507;51.494;7.518;2023-03-23T07:59:02;12.50;99.90
45807;DHT22;31507;51.494;7.518;2023-03-23T08:01:28;12.50;99.90
45807;DHT22;31507;51.494;7.518;2023-03-23T08:03:54;12.50;99.90
45807;DHT22;31507;51.494;7.518;2023-03-23T08:06:23;12.50;99.90
45807;DHT22;31507;51.494;7.518;2023-03-23T08:08:49;12.50;99.90
45807;DHT22;31507;51.494;7.518;2023-03-23T08:11:16;12.50;99.90
45807;DHT22;31507;51.494;7.518;2023-03-23T08:13:42;12.60;99.90
45807;DHT22;31507;51.494;7.518;2023-03-23T08:16:09;12.60;99.90
45807;DHT22;31507;51.494;7.518;2023-03-23T08:18:36;12.70;99.90
45807;DHT22;31507;51.494;7.518;2023-03-23T08:21:03;12.70;99.90
45807;DHT22;31507;51.494;7.518;2023-03-23T08:23:31;12.70;99.90
45807;DHT22;31507;51.494;7.518;2023-03-23T08:25:58;12.70;99.90
45807;DHT22;31507;51.494;7.518;2023-03-23T08:28:24;12.70;99.90
45807;DHT22;31507;51.494;7.518;2023-03-23T08:30:49;12.70;99.90
45807;DHT22;31507;51.494;7.518;2023-03-23T08:33:16;12.80;99.90
45807;DHT22;31507;51.494;7.518;2023-03-23T08:35:42;12.80;99.90
45807;DHT22;31507;51.494;7.518;2023-03-23T08:38:10;12.90;99.90
45807;DHT22;31507;51.494;7.518;2023-03-23T08:40:37;12.90;99.90
45807;DHT22;31507;51.494;7.518;2023-03-23T08:43:03;12.90;99.90
45807;DHT22;31507;51.494;7.518;2023-03-23T08:45:29;12.90;99.90
45807;DHT22;31507;51.494;7.518;2023-03-23T08:47:55;13.00;99.90
45807;DHT22;31507;51.494;7.518;2023-03-23T08:50:26;13.00;99.90
45807;DHT22;31507;51.494;7.518;2023-03-23T08:52:52;13.10;99.90
45807;DHT22;31507;51.494;7.518;2023-03-23T08:55:20;13.20;99.90
45807;DHT22;31507;51.494;7.518;2023-03-23T08:57:46;13.20;99.90
45807;DHT22;31507;51.494;7.518;2023-03-23T09:00:14;13.20;99.90
45807;DHT22;31507;51.494;7.518;2023-03-23T09:02:44;13.30;99.90
45807;DHT22;31507;51.494;7.518;2023-03-23T09:05:10;13.40;99.90
45807;DHT22;31507;51.494;7.518;2023-03-23T09:07:38;13.30;99.90
45807;DHT22;31507;51.494;7.518;2023-03-23T09:10:05;13.40;99.90
45807;DHT22;31507;51.494;7.518;2023-03-23T09:12:31;13.30;99.90
45807;DHT22;31507;51.494;7.518;2023-03-23T09:14:57;13.40;99.90
45807;DHT22;31507;51.494;7.518;2023-03-23T09:17:22;13.50;99.90
45807;DHT22;31507;51.494;7.518;2023-03-23T09:19:48;13.70;99.90
45807;DHT22;31507;51.494;7.518;2023-03-23T09:22:14;13.70;99.90
45807;DHT22;31507;51.494;7.518;2023-03-23T09:24:41;13.60;99.90
45807;DHT22;31507;51.494;7.518;2023-03-23T09:27:07;13.60;99.90
45807;DHT22;31507;51.494;7.518;2023-03-23T09:29:32;13.70;99.90
45807;DHT22;31507;51.494;7.518;2023-03-23T09:31:58;13.70;99.90
45807;DHT22;31507;51.494;7.518;2023-03-23T09:34:25;13.80;99.90
45807;DHT22;31507;51.494;7.518;2023-03-23T09:36:50;13.70;99.90
45807;DHT22;31507;51.494;7.518;2023-03-23T09:39:17;13.70;99.90
45807;DHT22;31507;51.494;7.518;2023-03-23T09:42:18;13.60;99.90
45807;DHT22;31507;51.494;7.518;2023-03-23T09:45:05;13.60;99.90
45807;DHT22;31507;51.494;7.518;2023-03-23T09:50:20;13.50;99.90
45807;DHT22;31507;51.494;7.518;2023-03-23T09:55:24;13.60;99.90
45807;DHT22;31507;51.494;7.518;2023-03-23T09:58:00;13.60;99.90
45807;DHT22;31507;51.494;7.518;2023-03-23T10:00:36;13.60;99.90
45807;DHT22;31507;51.494;7.518;2023-03-23T10:03:15;13.60;99.90
45807;DHT22;31507;51.494;7.518;2023-03-23T10:05:49;13.60;99.90
45807;DHT22;31507;51.494;7.518;2023-03-23T10:08:26;13.70;99.90
45807;DHT22;31507;51.494;7.518;2023-03-23T10:16:26;14.10;99.70
45807;DHT22;31507;51.494;7.518;2023-03-23T10:19:03;14.10;99.50
45807;DHT22;31507;51.494;7.518;2023-03-23T10:21:37;14.20;99.90
45807;DHT22;31507;51.494;7.518;2023-03-23T10:24:15;14.10;99.80
45807;DHT22;31507;51.494;7.518;2023-03-23T10:29:44;13.90;99.90
45807;DHT22;31507;51.494;7.518;2023-03-23T10:32:16;13.70;99.90
45807;DHT22;31507;51.494;7.518;2023-03-23T10:37:22;13.40;99.90
45807;DHT22;31507;51.494;7.518;2023-03-23T10:39:57;13.20;99.90
45807;DHT22;31507;51.494;7.518;2023-03-23T10:44:52;13.10;99.90
45807;DHT22;31507;51.494;7.518;2023-03-23T10:47:18;12.70;99.90
45807;DHT22;31507;51.494;7.518;2023-03-23T10:52:37;11.40;99.90
45807;DHT22;31507;51.494;7.518;2023-03-23T10:55:35;11.00;99.90
45807;DHT22;31507;51.494;7.518;2023-03-23T10:58:03;10.60;99.90
45807;DHT22;31507;51.494;7.518;2023-03-23T11:00:30;10.40;99.90
45807;DHT22;31507;51.494;7.518;2023-03-23T11:03:06;10.40;99.90
45807;DHT22;31507;51.494;7.518;2023-03-23T11:05:54;10.50;99.90
45807;DHT22;31507;51.494;7.518;2023-03-23T11:08:30;10.60;99.90
45807;DHT22;31507;51.494;7.518;2023-03-23T11:11:11;10.70;99.90
45807;DHT22;31507;51.494;7.518;2023-03-23T11:13:49;10.70;99.90
45807;DHT22;31507;51.494;7.518;2023-03-23T11:18:53;10.80;99.90
45807;DHT22;31507;51.494;7.518;2023-03-23T11:21:20;10.70;99.90
45807;DHT22;31507;51.494;7.518;2023-03-23T11:23:58;10.60;99.90
45807;DHT22;31507;51.494;7.518;2023-03-23T11:26:29;10.40;99.90
45807;DHT22;31507;51.494;7.518;2023-03-23T11:31:47;10.30;99.90
45807;DHT22;31507;51.494;7.518;2023-03-23T11:34:23;10.30;99.90
45807;DHT22;31507;51.494;7.518;2023-03-23T11:36:55;10.20;99.90
45807;DHT22;31507;51.494;7.518;2023-03-23T11:41:49;10.30;99.90
45807;DHT22;31507;51.494;7.518;2023-03-23T11:44:15;10.30;99.90
45807;DHT22;31507;51.494;7.518;2023-03-23T11:49:50;10.10;99.90
45807;DHT22;31507;51.494;7.518;2023-03-23T11:52:26;10.00;99.90
45807;DHT22;31507;51.494;7.518;2023-03-23T11:55:03;9.90;99.90
45807;DHT22;31507;51.494;7.518;2023-03-23T11:57:32;9.90;99.90
45807;DHT22;31507;51.494;7.518;2023-03-23T11:59:58;9.80;99.90
45807;DHT22;31507;51.494;7.518;2023-03-23T12:14:09;9.90;99.90
45807;DHT22;31507;51.494;7.518;2023-03-23T12:22:04;10.00;99.90
45807;DHT22;31507;51.494;7.518;2023-03-23T12:24:46;10.10;99.90
45807;DHT22;31507;51.494;7.518;2023-03-23T12:33:08;10.20;99.90
45807;DHT22;31507;51.494;7.518;2023-03-23T12:51:35;10.30;99.90
45807;DHT22;31507;51.494;7.518;2023-03-23T13:02:30;10.40;99.90
45807;DHT22;31507;51.494;7.518;2023-03-23T13:10:46;10.20;99.90
45807;DHT22;31507;51.494;7.518;2023-03-23T13:13:39;10.10;99.90
45807;DHT22;31507;51.494;7.518;2023-03-23T13:16:35;10.10;99.90
45807;DHT22;31507;51.494;7.518;2023-03-23T13:19:06;10.10;99.90
45807;DHT22;31507;51.494;7.518;2023-03-23T13:21:50;10.20;99.90
45807;DHT22;31507;51.494;7.518;2023-03-23T13:24:24;10.20;99.90
45807;DHT22;31507;51.494;7.518;2023-03-23T13:26:51;10.20;99.90
45807;DHT22;31507;51.494;7.518;2023-03-23T13:29:21;10.30;99.90
45807;DHT22;31507;51.494;7.518;2023-03-23T13:32:04;10.30;99.90
45807;DHT22;31507;51.494;7.518;2023-03-23T13:34:31;10.30;99.90
45807;DHT22;31507;51.494;7.518;2023-03-23T13:37:01;10.30;99.90
45807;DHT22;31507;51.494;7.518;2023-03-23T13:39:50;10.30;99.90
45807;DHT22;31507;51.494;7.518;2023-03-23T13:42:24;10.50;99.90
45807;DHT22;31507;51.494;7.518;2023-03-23T13:50:28;10.90;99.90
45807;DHT22;31507;51.494;7.518;2023-03-23T13:52:59;11.20;99.90
45807;DHT22;31507;51.494;7.518;2023-03-23T13:55:30;11.40;99.90
45807;DHT22;31507;51.494;7.518;2023-03-23T14:03:16;11.70;99.90
45807;DHT22;31507;51.494;7.518;2023-03-23T14:05:48;11.70;99.90
45807;DHT22;31507;51.494;7.518;2023-03-23T14:08:22;11.60;99.90
45807;DHT22;31507;51.494;7.518;2023-03-23T14:13:21;11.50;99.90
45807;DHT22;31507;51.494;7.518;2023-03-23T14:16:03;11.40;99.90
45807;DHT22;31507;51.494;7.518;2023-03-23T14:18:36;11.30;99.90
45807;DHT22;31507;51.494;7.518;2023-03-23T14:21:04;11.30;99.90
45807;DHT22;31507;51.494;7.518;2023-03-23T14:23:34;11.40;99.90
45807;DHT22;31507;51.494;7.518;2023-03-23T14:26:03;11.40;99.90
45807;DHT22;31507;51.494;7.518;2023-03-23T14:28:39;11.40;99.90
45807;DHT22;31507;51.494;7.518;2023-03-23T14:31:16;11.40;99.90
45807;DHT22;31507;51.494;7.518;2023-03-23T14:33:43;11.30;99.90
45807;DHT22;31507;51.494;7.518;2023-03-23T14:36:09;11.30;99.90
45807;DHT22;31507;51.494;7.518;2023-03-23T14:38:35;11.30;99.90
45807;DHT22;31507;51.494;7.518;2023-03-23T14:41:03;11.30;99.90
45807;DHT22;31507;51.494;7.518;2023-03-23T14:43:30;11.30;99.90
45807;DHT22;31507;51.494;7.518;2023-03-23T14:45:59;11.30;99.90
45807;DHT22;31507;51.494;7.518;2023-03-23T14:48:26;11.30;99.90
45807;DHT22;31507;51.494;7.518;2023-03-23T14:50:56;11.30;99.90
45807;DHT22;31507;51.494;7.518;2023-03-23T14:53:37;11.40;99.90
45807;DHT22;31507;51.494;7.518;2023-03-23T14:56:22;11.60;99.90
45807;DHT22;31507;51.494;7.518;2023-03-23T14:58:51;12.10;99.90
45807;DHT22;31507;51.494;7.518;2023-03-23T15:01:26;12.60;99.90
45807;DHT22;31507;51.494;7.518;2023-03-23T15:03:59;12.90;99.90
45807;DHT22;31507;51.494;7.518;2023-03-23T15:06:29;13.10;99.90
45807;DHT22;31507;51.494;7.518;2023-03-23T15:08:58;13.20;99.90
45807;DHT22;31507;51.494;7.518;2023-03-23T15:11:28;13.40;99.90
45807;DHT22;31507;51.494;7.518;2023-03-23T15:13:58;13.60;99.90
45807;DHT22;31507;51.494;7.518;2023-03-23T15:16:31;13.50;99.90
45807;DHT22;31507;51.494;7.518;2023-03-23T15:19:10;13.50;99.90
45807;DHT22;31507;51.494;7.518;2023-03-23T15:27:24;12.60;99.90
45807;DHT22;31507;51.494;7.518;2023-03-23T15:29:54;12.60;99.90
45807;DHT22;31507;51.494;7.518;2023-03-23T15:32:28;12.80;99.90
45807;DHT22;31507;51.494;7.518;2023-03-23T15:34:55;12.80;99.90
45807;DHT22;31507;51.494;7.518;2023-03-23T15:37:27;12.80;99.90
45807;DHT22;31507;51.494;7.518;2023-03-23T15:39:54;12.90;99.90
45807;DHT22;31507;51.494;7.518;2023-03-23T15:47:54;13.80;99.90
45807;DHT22;31507;51.494;7.518;2023-03-23T15:52:51;14.00;99.90
45807;DHT22;31507;51.494;7.518;2023-03-23T15:55:28;14.00;99.90
45807;DHT22;31507;51.494;7.518;2023-03-23T15:57:57;13.70;99.90
45807;DHT22;31507;51.494;7.518;2023-03-23T16:00:25;13.60;99.90
45807;DHT22;31507;51.494;7.518;2023-03-23T16:03:00;13.40;99.90
45807;DHT22;31507;51.494;7.518;2023-03-23T16:05:26;13.60;99.90
45807;DHT22;31507;51.494;7.518;2023-03-23T16:07:52;13.70;99.90
45807;DHT22;31507;51.494;7.518;2023-03-23T16:10:21;13.80;99.90
45807;DHT22;31507;51.494;7.518;2023-03-23T16:12:47;13.90;99.90
45807;DHT22;31507;51.494;7.518;2023-03-23T16:15:14;13.80;99.90
45807;DHT22;31507;51.494;7.518;2023-03-23T16:17:40;13.70;99.90
45807;DHT22;31507;51.494;7.518;2023-03-23T16:20:20;13.70;99.90
45807;DHT22;31507;51.494;7.518;2023-03-23T16:22:47;13.40;99.90
45807;DHT22;31507;51.494;7.518;2023-03-23T16:25:13;13.10;99.90
45807;DHT22;31507;51.494;7.518;2023-03-23T16:27:40;13.00;99.90
45807;DHT22;31507;51.494;7.518;2023-03-23T16:30:19;12.80;99.90
45807;DHT22;31507;51.494;7.518;2023-03-23T16:32:45;12.70;99.90
45807;DHT22;31507;51.494;7.518;2023-03-23T16:35:11;12.60;99.90
45807;DHT22;31507;51.494;7.518;2023-03-23T16:37:38;12.50;99.90
45807;DHT22;31507;51.494;7.518;2023-03-23T16:40:05;12.50;99.90
45807;DHT22;31507;51.494;7.518;2023-03-23T16:42:31;12.50;99.90
45807;DHT22;31507;51.494;7.518;2023-03-23T16:44:57;12.50;99.90
45807;DHT22;31507;51.494;7.518;2023-03-23T16:47:23;12.40;99.90
45807;DHT22;31507;51.494;7.518;2023-03-23T16:49:50;12.40;99.90
45807;DHT22;31507;51.494;7.518;2023-03-23T16:52:16;12.30;99.90
45807;DHT22;31507;51.494;7.518;2023-03-23T16:54:42;12.20;99.90
45807;DHT22;31507;51.494;7.518;2023-03-23T16:57:08;12.20;99.90
45807;DHT22;31507;51.494;7.518;2023-03-23T16:59:34;12.10;99.90
45807;DHT22;31507;51.494;7.518;2023-03-23T17:02:00;12.10;99.90
45807;DHT22;31507;51.494;7.518;2023-03-23T17:04:31;12.00;99.90
45807;DHT22;31507;51.494;7.518;2023-03-23T17:06:57;12.00;99.90
45807;DHT22;31507;51.494;7.518;2023-03-23T17:09:24;11.90;99.90
45807;DHT22;31507;51.494;7.518;2023-03-23T17:11:51;11.90;99.90
45807;DHT22;31507;51.494;7.518;2023-03-23T17:14:16;11.90;99.90
45807;DHT22;31507;51.494;7.518;2023-03-23T17:16:42;11.80;99.90
45807;DHT22;31507;51.494;7.518;2023-03-23T17:19:08;11.90;99.90
45807;DHT22;31507;51.494;7.518;2023-03-23T17:21:33;11.80;99.90
45807;DHT22;31507;51.494;7.518;2023-03-23T17:23:59;11.80;99.90
45807;DHT22;31507;51.494;7.518;2023-03-23T17:26:24;11.80;99.90
45807;DHT22;31507;51.494;7.518;2023-03-23T17:28:50;11.80;99.90
45807;DHT22;31507;51.494;7.518;2023-03-23T17:31:16;11.90;99.90
45807;DHT22;31507;51.494;7.518;2023-03-23T17:33:41;11.80;99.90
45807;DHT22;31507;51.494;7.518;2023-03-23T17:36:07;11.70;99.90
45807;DHT22;31507;51.494;7.518;2023-03-23T17:38:33;11.70;99.90
45807;DHT22;31507;51.494;7.518;2023-03-23T17:41:00;11.70;99.90
45807;DHT22;31507;51.494;7.518;2023-03-23T17:43:26;11.70;99.90
45807;DHT22;31507;51.494;7.518;2023-03-23T17:45:51;11.70;99.90
45807;DHT22;31507;51.494;7.518;2023-03-23T17:48:17;11.60;99.90
45807;DHT22;31507;51.494;7.518;2023-03-23T17:50:46;11.60;99.90
45807;DHT22;31507;51.494;7.518;2023-03-23T17:53:12;11.60;99.90
45807;DHT22;31507;51.494;7.518;2023-03-23T17:55:38;11.60;99.90
45807;DHT22;31507;51.494;7.518;2023-03-23T17:58:08;11.70;99.90